Time;durP1;ratioP1;P1;durP2;ratioP2;P2;SDS_P1;SDS_P2;PMS_P1;PMS_P2;Temp;Humidity;BMP_temperature;BMP_pressure;BME280_temperature;BME280_humidity;BME280_pressure;Samples;Min_cycle;Max_cycle;Signal;HPM_P1;HPM_P2
2022/08/08 00:00:26;;;;;;;12.52;5.43;;;;;;;;;;4997889;28;20450;-72
2022/08/08 00:03:05;;;;;;;11.57;4.78;;;;;;;;;;5015665;28;20132;-71
2022/08/08 00:05:39;;;;;;;14.50;4.88;;;;;;;;;;5015389;28;20053;-71
2022/08/08 00:08:23;;;;;;;14.57;5.50;;;;;;;;;;5014129;28;20066;-71
2022/08/08 00:10:59;;;;;;;14.88;5.25;;;;;;;;;;5015225;28;20133;-71
2022/08/08 00:13:40;;;;;;;11.90;5.18;;;;;;;;;;5015546;28;20046;-71
2022/08/08 00:16:06;;;;;;;11.50;5.18;;;;;;;;;;5015179;28;20049;-71
2022/08/08 00:18:44;;;;;;;12.60;5.35;;;;;;;;;;5015140;28;20056;-72
2022/08/08 00:21:14;;;;;;;11.77;5.53;;;;;;;;;;5015127;28;20132;-71
2022/08/08 00:23:47;;;;;;;13.50;5.20;;;;;;;;;;5014997;28;20133;-72
2022/08/08 00:26:25;;;;;;;13.00;5.30;;;;;;;;;;5014940;28;20379;-72
2022/08/08 00:28:52;;;;;;;12.07;5.80;;;;;;;;;;5015102;28;20486;-72
2022/08/08 00:31:21;;;;;;;13.90;5.38;;;;;;;;;;5014823;28;20501;-72
2022/08/08 00:35:09;;;;;;;12.32;5.50;;;;;;;;;;5015245;28;20046;-72
2022/08/08 00:36:53;;;;;;;13.23;5.32;;;;;;;;;;5000079;28;20054;-72
2022/08/08 00:39:25;;;;;;;12.18;5.40;;;;;;;;;;5015195;28;20490;-71
2022/08/08 00:42:18;;;;;;;12.40;5.50;;;;;;;;;;5015041;28;20049;-71
2022/08/08 00:45:07;;;;;;;13.45;5.18;;;;;;;;;;4984649;28;20144;-71
2022/08/08 00:47:33;;;;;;;12.70;5.35;;;;;;;;;;4977719;28;20049;-71
2022/08/08 00:50:11;;;;;;;14.35;5.35;;;;;;;;;;5014491;28;20045;-71
2022/08/08 00:52:41;;;;;;;12.23;5.18;;;;;;;;;;5014295;28;20141;-72
2022/08/08 00:55:22;;;;;;;11.75;4.80;;;;;;;;;;5014671;28;20097;-71
2022/08/08 00:58:14;;;;;;;13.20;5.18;;;;;;;;;;5014222;28;20119;-72
2022/08/08 01:00:46;;;;;;;15.90;5.72;;;;;;;;;;4997686;28;20380;-72
2022/08/08 01:03:18;;;;;;;15.65;5.47;;;;;;;;;;5014533;28;20494;-71
2022/08/08 01:05:47;;;;;;;12.60;5.32;;;;;;;;;;5014037;28;20053;-71
2022/08/08 01:08:16;;;;;;;12.77;6.20;;;;;;;;;;5014206;28;20053;-71
2022/08/08 01:10:45;;;;;;;17.73;6.00;;;;;;;;;;5013956;28;20038;-72
2022/08/08 01:13:30;;;;;;;14.13;5.68;;;;;;;;;;5014028;28;20133;-71
2022/08/08 01:15:56;;;;;;;13.77;5.15;;;;;;;;;;5013975;28;20050;-71
2022/08/08 01:18:45;;;;;;;13.93;5.05;;;;;;;;;;5012043;28;20114;-73
2022/08/08 01:21:12;;;;;;;20.92;5.57;;;;;;;;;;4997012;28;20077;-72
2022/08/08 01:23:57;;;;;;;12.25;5.65;;;;;;;;;;5010489;28;20145;-73
2022/08/08 01:26:26;;;;;;;14.65;5.60;;;;;;;;;;5010572;28;20045;-73
2022/08/08 01:29:10;;;;;;;15.63;5.82;;;;;;;;;;5010242;28;20054;-73
2022/08/08 01:31:52;;;;;;;13.20;5.65;;;;;;;;;;4992784;28;20531;-73
2022/08/08 01:34:27;;;;;;;11.60;5.30;;;;;;;;;;5010313;28;20072;-73
2022/08/08 01:37:12;;;;;;;11.85;5.78;;;;;;;;;;4992248;28;20374;-73
2022/08/08 01:39:50;;;;;;;15.68;5.93;;;;;;;;;;5010207;28;20045;-73
2022/08/08 01:42:22;;;;;;;11.60;5.45;;;;;;;;;;5009849;28;20478;-73
2022/08/08 01:44:58;;;;;;;14.27;6.20;;;;;;;;;;5009763;28;20088;-73
2022/08/08 01:47:42;;;;;;;15.68;6.38;;;;;;;;;;5009347;28;20050;-73
2022/08/08 01:50:17;;;;;;;12.05;5.60;;;;;;;;;;5009668;28;20435;-73
2022/08/08 01:52:52;;;;;;;17.08;6.57;;;;;;;;;;5010145;28;20104;-73
2022/08/08 01:55:37;;;;;;;15.52;7.03;;;;;;;;;;5009766;28;20069;-73
2022/08/08 01:58:15;;;;;;;13.20;6.15;;;;;;;;;;5010138;28;20096;-73
2022/08/08 02:00:50;;;;;;;;;;;;;;;;;;4994356;28;20121;-72
2022/08/08 02:03:23;;;;;;;16.80;6.93;;;;;;;;;;4991990;28;19921;-73
2022/08/08 02:06:01;;;;;;;13.70;5.97;;;;;;;;;;5010233;28;20046;-73
2022/08/08 02:08:44;;;;;;;14.75;6.78;;;;;;;;;;5009786;28;20045;-73
2022/08/08 02:11:19;;;;;;;17.13;6.93;;;;;;;;;;5009954;28;20125;-73
2022/08/08 02:13:49;;;;;;;13.23;6.07;;;;;;;;;;5009637;28;20126;-73
2022/08/08 02:16:33;;;;;;;16.27;6.65;;;;;;;;;;5009821;28;20081;-73
2022/08/08 02:19:06;;;;;;;13.40;6.65;;;;;;;;;;5009929;28;20050;-73
2022/08/08 02:24:31;;;;;;;13.90;6.45;;;;;;;;;;5010061;28;20135;-73
2022/08/08 02:27:03;;;;;;;14.98;6.63;;;;;;;;;;4991952;28;20068;-73
2022/08/08 02:29:48;;;;;;;15.48;6.85;;;;;;;;;;5010220;28;20100;-72
2022/08/08 02:32:24;;;;;;;16.75;6.38;;;;;;;;;;5009816;28;20046;-72
2022/08/08 02:35:08;;;;;;;14.90;6.88;;;;;;;;;;5009744;28;20088;-73
2022/08/08 02:37:49;;;;;;;14.85;7.05;;;;;;;;;;5009820;28;20478;-73
2022/08/08 02:40:19;;;;;;;17.60;7.93;;;;;;;;;;5009856;28;20488;-73
2022/08/08 02:42:54;;;;;;;16.50;7.40;;;;;;;;;;5009913;28;20104;-73
2022/08/08 02:45:20;;;;;;;14.48;7.35;;;;;;;;;;5009945;28;20060;-73
2022/08/08 02:48:05;;;;;;;16.20;7.45;;;;;;;;;;5009826;28;20041;-73
2022/08/08 02:50:31;;;;;;;15.63;6.95;;;;;;;;;;5009395;28;20136;-73
2022/08/08 02:53:00;;;;;;;15.57;7.38;;;;;;;;;;5009493;28;20069;-72
2022/08/08 02:55:29;;;;;;;16.98;7.70;;;;;;;;;;5009545;28;20054;-73
2022/08/08 02:57:55;;;;;;;17.85;7.50;;;;;;;;;;5009274;28;20077;-73
2022/08/08 03:00:36;;;;;;;14.85;7.93;;;;;;;;;;5009511;28;20128;-73
2022/08/08 03:03:22;;;;;;;17.13;7.45;;;;;;;;;;4991843;28;20493;-73
2022/08/08 03:06:07;;;;;;;14.73;6.95;;;;;;;;;;4969310;28;20154;-73
2022/08/08 03:08:33;;;;;;;15.73;7.65;;;;;;;;;;4991662;28;20415;-72
2022/08/08 03:11:05;;;;;;;17.80;7.63;;;;;;;;;;5009451;28;20200;-73
2022/08/08 03:13:40;;;;;;;15.43;7.40;;;;;;;;;;5009284;28;20169;-73
2022/08/08 03:16:15;;;;;;;15.30;7.45;;;;;;;;;;5009421;28;20140;-73
2022/08/08 03:18:44;;;;;;;14.18;6.65;;;;;;;;;;5009917;28;20050;-68
2022/08/08 03:21:10;;;;;;;15.77;7.32;;;;;;;;;;5009282;28;20061;-70
2022/08/08 03:23:37;;;;;;;14.15;7.72;;;;;;;;;;5009161;28;20050;-72
2022/08/08 03:26:03;;;;;;;14.65;7.75;;;;;;;;;;5009351;28;20119;-72
2022/08/08 03:28:39;;;;;;;14.70;7.28;;;;;;;;;;5012282;28;20176;-73
2022/08/08 03:33:51;;;;;;;17.45;8.00;;;;;;;;;;5012560;28;20386;-72
2022/08/08 03:36:17;;;;;;;18.42;7.93;;;;;;;;;;5012924;28;20049;-73
2022/08/08 03:38:48;;;;;;;15.73;7.85;;;;;;;;;;5012817;28;20072;-73
2022/08/08 03:41:14;;;;;;;16.02;7.60;;;;;;;;;;5012636;28;20461;-73
2022/08/08 03:43:40;;;;;;;14.18;7.30;;;;;;;;;;5012912;28;20046;-72
2022/08/08 03:46:09;;;;;;;14.30;7.35;;;;;;;;;;5012571;28;20137;-73
2022/08/08 03:48:35;;;;;;;15.30;7.28;;;;;;;;;;4994893;28;20075;-72
2022/08/08 03:51:01;;;;;;;14.63;7.60;;;;;;;;;;5012679;28;20156;-72
2022/08/08 03:53:35;;;;;;;13.43;7.40;;;;;;;;;;5012340;28;20046;-72
2022/08/08 03:56:01;;;;;;;13.50;7.05;;;;;;;;;;5012533;28;20480;-73
2022/08/08 03:58:27;;;;;;;;;;;;;;;;;;5012569;28;20065;-72
2022/08/08 04:00:54;;;;;;;16.77;7.35;;;;;;;;;;5011773;28;19947;-73
2022/08/08 04:03:21;;;;;;;13.98;7.53;;;;;;;;;;5011814;28;20085;-72
2022/08/08 04:05:47;;;;;;;15.82;7.22;;;;;;;;;;5011908;28;20129;-73
2022/08/08 04:08:17;;;;;;;14.98;7.05;;;;;;;;;;5011645;28;20046;-73
2022/08/08 04:10:46;;;;;;;14.98;7.07;;;;;;;;;;4977600;28;20052;-72
2022/08/08 04:13:12;;;;;;;13.18;7.35;;;;;;;;;;5012382;28;20095;-73
2022/08/08 04:15:38;;;;;;;16.90;8.32;;;;;;;;;;5012032;28;20185;-72
2022/08/08 04:18:04;;;;;;;15.45;7.32;;;;;;;;;;5011913;28;20081;-73
2022/08/08 04:20:30;;;;;;;17.85;7.50;;;;;;;;;;5011525;28;20046;-73
2022/08/08 04:22:57;;;;;;;16.55;7.80;;;;;;;;;;5011801;28;20045;-73
2022/08/08 04:25:23;;;;;;;;;;;;;;;;;;4994542;28;20061;-72
2022/08/08 04:27:49;;;;;;;17.60;8.70;;;;;;;;;;5011741;28;19928;-73
2022/08/08 04:30:15;;;;;;;16.25;7.68;;;;;;;;;;5011508;28;20095;-73
2022/08/08 04:32:41;;;;;;;16.77;8.13;;;;;;;;;;5011760;28;20049;-73
2022/08/08 04:35:07;;;;;;;16.63;8.55;;;;;;;;;;5011766;28;20046;-73
2022/08/08 04:37:33;;;;;;;18.52;9.02;;;;;;;;;;5011669;28;20560;-74
2022/08/08 04:40:00;;;;;;;15.88;8.35;;;;;;;;;;5010592;28;20121;-73
2022/08/08 04:42:29;;;;;;;17.30;8.50;;;;;;;;;;5011646;28;20050;-73
2022/08/08 04:44:56;;;;;;;15.50;8.38;;;;;;;;;;5011440;28;20054;-73
2022/08/08 04:47:22;;;;;;;17.10;9.18;;;;;;;;;;5011252;28;20049;-73
2022/08/08 04:49:48;;;;;;;16.98;8.70;;;;;;;;;;5011346;28;20157;-73
2022/08/08 04:52:14;;;;;;;18.23;8.77;;;;;;;;;;5011032;28;20137;-73
2022/08/08 04:54:40;;;;;;;15.98;8.05;;;;;;;;;;5011407;28;20069;-73
2022/08/08 04:57:07;;;;;;;16.05;7.85;;;;;;;;;;4993520;28;20111;-72
2022/08/08 04:59:33;;;;;;;20.67;9.15;;;;;;;;;;5011181;28;20077;-73
2022/08/08 05:01:59;;;;;;;16.83;8.80;;;;;;;;;;4993768;28;20374;-73
2022/08/08 05:04:25;;;;;;;23.63;9.48;;;;;;;;;;5011382;28;20453;-73
2022/08/08 05:06:51;;;;;;;17.55;8.70;;;;;;;;;;4993417;28;20076;-73
2022/08/08 05:09:17;;;;;;;19.05;9.10;;;;;;;;;;5011196;28;20378;-72
2022/08/08 05:11:43;;;;;;;15.80;8.63;;;;;;;;;;5011165;28;20057;-73
2022/08/08 05:14:10;;;;;;;16.20;9.00;;;;;;;;;;4976972;28;20048;-73
2022/08/08 05:16:37;;;;;;;18.92;8.95;;;;;;;;;;5011052;28;20046;-73
2022/08/08 05:19:03;;;;;;;;;;;;;;;;;;4993550;28;20065;-73
2022/08/08 05:21:29;;;;;;;15.63;9.07;;;;;;;;;;5025821;28;19947;-73
2022/08/08 05:23:56;;;;;;;16.10;9.38;;;;;;;;;;4992811;28;20501;-73
2022/08/08 05:26:22;;;;;;;18.90;9.48;;;;;;;;;;5010923;28;20101;-72
2022/08/08 05:28:48;;;;;;;17.00;9.30;;;;;;;;;;4993211;28;20050;-73
2022/08/08 05:31:14;;;;;;;;;;;;;;;;;;5010847;28;20042;-73
2022/08/08 05:33:40;;;;;;;15.05;9.00;;;;;;;;;;5010734;28;19928;-73
2022/08/08 05:36:10;;;;;;;16.80;9.90;;;;;;;;;;5010578;28;20066;-74
2022/08/08 05:38:40;;;;;;;17.48;9.52;;;;;;;;;;5010743;28;20049;-73
2022/08/08 05:41:06;;;;;;;16.92;9.25;;;;;;;;;;5010750;28;20140;-74
2022/08/08 05:43:34;;;;;;;20.73;10.02;;;;;;;;;;5009905;28;20045;-73
2022/08/08 05:46:04;;;;;;;17.75;9.55;;;;;;;;;;4992499;28;20066;-74
2022/08/08 05:48:31;;;;;;;20.60;8.52;;;;;;;;;;5010101;28;20398;-73
2022/08/08 05:50:58;;;;;;;18.70;9.25;;;;;;;;;;5009711;28;20049;-73
2022/08/08 05:53:26;;;;;;;20.17;9.60;;;;;;;;;;5009932;28;20053;-72
2022/08/08 05:55:54;;;;;;;18.13;10.15;;;;;;;;;;5009881;28;20458;-73
2022/08/08 05:58:21;;;;;;;16.02;8.43;;;;;;;;;;5010139;28;20057;-73
2022/08/08 06:00:48;;;;;;;16.13;8.80;;;;;;;;;;5010032;28;20411;-73
2022/08/08 06:03:18;;;;;;;17.20;8.57;;;;;;;;;;4992631;28;20209;-72
2022/08/08 06:05:52;;;;;;;16.35;8.50;;;;;;;;;;5010189;28;20103;-73
2022/08/08 06:08:28;;;;;;;19.23;8.82;;;;;;;;;;5009672;28;20388;-73
2022/08/08 06:10:55;;;;;;;18.70;8.98;;;;;;;;;;5009865;28;20041;-73
2022/08/08 06:13:22;;;;;;;20.65;9.10;;;;;;;;;;5009986;28;20049;-73
2022/08/08 06:15:49;;;;;;;21.45;9.20;;;;;;;;;;5009995;28;20459;-72
2022/08/08 06:18:15;;;;;;;18.23;8.00;;;;;;;;;;5009098;28;20071;-73
2022/08/08 06:20:43;;;;;;;21.38;8.75;;;;;;;;;;5009745;28;20057;-74
2022/08/08 06:23:09;;;;;;;24.45;8.95;;;;;;;;;;5009665;28;20517;-74
2022/08/08 06:25:36;;;;;;;18.23;9.10;;;;;;;;;;4992302;28;20435;-73
2022/08/08 06:28:05;;;;;;;22.23;8.68;;;;;;;;;;5009698;28;20085;-72
2022/08/08 06:30:32;;;;;;;15.88;8.32;;;;;;;;;;5009710;28;20074;-72
2022/08/08 06:32:59;;;;;;;18.67;8.45;;;;;;;;;;4991710;28;20192;-72
2022/08/08 06:35:26;;;;;;;17.45;7.68;;;;;;;;;;5009522;28;20096;-72
2022/08/08 06:37:53;;;;;;;15.88;7.32;;;;;;;;;;5009843;28;20065;-72
2022/08/08 06:40:20;;;;;;;16.63;7.63;;;;;;;;;;5009953;28;20046;-73
2022/08/08 06:42:50;;;;;;;18.08;7.60;;;;;;;;;;5009530;28;20073;-73
2022/08/08 06:45:19;;;;;;;16.23;7.05;;;;;;;;;;5009833;28;20046;-72
2022/08/08 06:47:45;;;;;;;20.17;7.65;;;;;;;;;;5009551;28;20052;-73
2022/08/08 06:50:15;;;;;;;16.90;7.35;;;;;;;;;;5009452;28;20549;-72
2022/08/08 06:52:41;;;;;;;18.05;7.53;;;;;;;;;;5009147;28;20342;-72
2022/08/08 06:55:08;;;;;;;15.13;7.60;;;;;;;;;;5009322;28;20481;-73
2022/08/08 06:57:34;;;;;;;17.65;7.00;;;;;;;;;;5009748;28;20125;-73
2022/08/08 07:00:01;;;;;;;14.98;6.75;;;;;;;;;;5009724;28;20338;-73
2022/08/08 07:02:30;;;;;;;15.85;6.32;;;;;;;;;;5010650;28;20081;-73
2022/08/08 07:05:01;;;;;;;13.50;6.57;;;;;;;;;;4996511;28;20053;-73
2022/08/08 07:07:33;;;;;;;14.23;5.80;;;;;;;;;;5014637;28;20139;-73
2022/08/08 07:10:02;;;;;;;16.20;5.93;;;;;;;;;;5015233;28;20054;-73
2022/08/08 07:12:48;;;;;;;12.48;5.55;;;;;;;;;;4979501;28;20046;-73
2022/08/08 07:15:15;;;;;;;17.43;6.37;;;;;;;;;;5014214;28;20054;-73
2022/08/08 07:17:45;;;;;;;14.40;5.50;;;;;;;;;;5013921;28;20053;-73
2022/08/08 07:20:17;;;;;;;16.95;6.20;;;;;;;;;;5014097;28;20085;-73
2022/08/08 07:23:02;;;;;;;13.85;5.25;;;;;;;;;;5013800;28;20053;-72
2022/08/08 07:25:31;;;;;;;17.60;5.57;;;;;;;;;;5013507;28;20046;-73
2022/08/08 07:28:01;;;;;;;14.30;5.55;;;;;;;;;;5013359;28;20114;-74
2022/08/08 07:30:27;;;;;;;13.30;5.45;;;;;;;;;;5013319;28;20046;-73
2022/08/08 07:32:53;;;;;;;;;;;;;;;;;;5013534;28;20140;-74
2022/08/08 07:35:20;;;;;;;13.57;5.45;;;;;;;;;;5013274;28;19947;-73
2022/08/08 07:37:46;;;;;;;13.43;5.47;;;;;;;;;;4995758;28;20056;-73
2022/08/08 07:40:14;;;;;;;12.27;5.10;;;;;;;;;;5013164;28;20137;-72
2022/08/08 07:42:41;;;;;;;12.70;5.10;;;;;;;;;;4995628;28;20069;-73
2022/08/08 07:45:07;;;;;;;13.00;5.43;;;;;;;;;;5013109;28;20128;-72
2022/08/08 07:47:33;;;;;;;11.55;4.38;;;;;;;;;;5013067;28;20128;-73
2022/08/08 07:49:59;;;;;;;;;;;;;;;;;;5013588;28;20046;-72
2022/08/08 07:52:26;;;;;;;12.63;3.92;;;;;;;;;;5012801;28;20019;-79
2022/08/08 07:54:55;;;;;;;9.32;3.38;;;;;;;;;;5012497;28;20204;-81
2022/08/08 07:57:33;;;;;;;10.52;3.55;;;;;;;;;;5012782;28;20515;-79
2022/08/08 08:00:06;;;;;;;12.95;3.70;;;;;;;;;;5012206;28;20125;-76
2022/08/08 08:02:47;;;;;;;10.05;3.25;;;;;;;;;;5012106;28;20397;-76
2022/08/08 08:05:19;;;;;;;8.95;3.25;;;;;;;;;;5013557;28;20129;-81
2022/08/08 08:07:49;;;;;;;9.52;3.20;;;;;;;;;;5013310;28;20096;-76
2022/08/08 08:10:19;;;;;;;7.63;2.40;;;;;;;;;;5012097;28;20093;-78
2022/08/08 08:12:49;;;;;;;9.75;2.70;;;;;;;;;;5011000;28;20132;-76
2022/08/08 08:15:18;;;;;;;9.82;2.70;;;;;;;;;;5011667;28;20054;-76
2022/08/08 08:17:44;;;;;;;6.07;2.60;;;;;;;;;;5011692;28;20149;-74
2022/08/08 08:20:10;;;;;;;9.02;2.70;;;;;;;;;;5011701;28;20045;-74
2022/08/08 08:22:36;;;;;;;;;;;;;;;;;;5012213;28;20077;-74
2022/08/08 08:25:03;;;;;;;7.53;2.38;;;;;;;;;;5011806;28;19948;-78
2022/08/08 08:27:29;;;;;;;9.13;2.63;;;;;;;;;;5011389;28;20475;-79
2022/08/08 08:29:55;;;;;;;8.38;2.70;;;;;;;;;;5012271;28;20497;-79
2022/08/08 08:32:21;;;;;;;10.95;2.97;;;;;;;;;;5011033;28;20416;-82
2022/08/08 08:34:49;;;;;;;9.38;2.65;;;;;;;;;;5011958;28;20050;-77
2022/08/08 08:37:15;;;;;;;8.77;2.95;;;;;;;;;;5012642;28;20108;-75
2022/08/08 08:39:44;;;;;;;9.02;2.50;;;;;;;;;;4994612;28;20053;-76
2022/08/08 08:42:10;;;;;;;;;;;;;;;;;;5012275;28;20045;-76
2022/08/08 08:44:36;;;;;;;10.05;3.10;;;;;;;;;;5011944;28;20309;-83
2022/08/08 08:47:03;;;;;;;7.22;2.75;;;;;;;;;;5011717;28;20053;-78
2022/08/08 08:49:29;;;;;;;7.80;2.97;;;;;;;;;;5011707;28;20523;-78
2022/08/08 08:51:55;;;;;;;;;;;;;;;;;;4994156;28;20129;-76
2022/08/08 08:54:23;;;;;;;8.57;2.58;;;;;;;;;;5011388;28;19975;-77
2022/08/08 08:56:49;;;;;;;10.30;3.00;;;;;;;;;;5011569;28;20052;-74
2022/08/08 08:59:17;;;;;;;12.32;3.30;;;;;;;;;;4994747;28;20444;-76
2022/08/08 09:01:44;;;;;;;10.65;3.13;;;;;;;;;;5011640;28;20041;-72
2022/08/08 09:04:13;;;;;;;9.95;2.75;;;;;;;;;;5011483;28;20049;-76
2022/08/08 09:06:40;;;;;;;12.13;2.70;;;;;;;;;;5011570;28;20147;-74
2022/08/08 09:09:10;;;;;;;8.57;2.97;;;;;;;;;;5011360;28;20061;-74
2022/08/08 09:11:40;;;;;;;10.85;2.70;;;;;;;;;;4993643;28;20185;-75
2022/08/08 09:14:08;;;;;;;8.68;2.50;;;;;;;;;;4993116;28;20457;-73
2022/08/08 09:16:34;;;;;;;10.70;2.88;;;;;;;;;;4994034;28;20057;-76
2022/08/08 09:19:01;;;;;;;8.07;2.60;;;;;;;;;;5011343;28;20103;-75
2022/08/08 09:21:28;;;;;;;9.20;2.47;;;;;;;;;;5011936;28;20129;-74
2022/08/08 09:23:55;;;;;;;12.02;2.83;;;;;;;;;;5011265;28;20107;-75
2022/08/08 09:26:21;;;;;;;7.65;2.50;;;;;;;;;;5010088;28;20084;-75
2022/08/08 09:28:49;;;;;;;7.25;2.30;;;;;;;;;;5010682;28;20381;-72
2022/08/08 09:31:31;;;;;;;9.75;2.55;;;;;;;;;;5010531;28;20061;-75
2022/08/08 09:33:57;;;;;;;9.57;2.60;;;;;;;;;;5010825;28;20521;-75
2022/08/08 09:36:27;;;;;;;9.93;2.70;;;;;;;;;;5010654;28;20085;-75
2022/08/08 09:38:55;;;;;;;9.30;2.40;;;;;;;;;;5010513;28;20100;-74
2022/08/08 09:41:27;;;;;;;6.70;2.65;;;;;;;;;;5010677;28;20042;-78
2022/08/08 09:43:55;;;;;;;7.78;2.30;;;;;;;;;;5012234;28;20080;-82
2022/08/08 09:46:21;;;;;;;8.35;2.45;;;;;;;;;;5015893;28;20053;-77
2022/08/08 09:48:47;;;;;;;9.40;2.70;;;;;;;;;;4987401;28;20073;-80
2022/08/08 09:51:13;;;;;;;;;;;;;;;;;;5018940;28;20082;-79
2022/08/08 09:53:48;;;;;;;7.60;2.50;;;;;;;;;;4994102;28;19932;-84
2022/08/08 09:56:16;;;;;;;8.05;2.38;;;;;;;;;;5013547;28;20049;-79
2022/08/08 09:58:48;;;;;;;10.20;2.42;;;;;;;;;;5013000;28;20053;-80
2022/08/08 10:01:18;;;;;;;8.02;2.20;;;;;;;;;;5010451;28;20045;-79
2022/08/08 10:03:46;;;;;;;8.55;2.50;;;;;;;;;;5010425;28;20049;-75
2022/08/08 10:06:12;;;;;;;21.73;2.80;;;;;;;;;;5010155;28;20041;-84
2022/08/08 10:08:45;;;;;;;7.65;2.50;;;;;;;;;;5010269;28;20046;-82
2022/08/08 10:11:12;;;;;;;8.38;2.42;;;;;;;;;;4992324;28;20099;-81
2022/08/08 10:13:38;;;;;;;7.82;2.53;;;;;;;;;;4992576;28;20133;-78
2022/08/08 10:16:04;;;;;;;;;;;;;;;;;;5010517;28;20112;-75
2022/08/08 10:18:34;;;;;;;9.80;2.47;;;;;;;;;;5010161;28;19921;-78
2022/08/08 10:21:02;;;;;;;6.65;2.70;;;;;;;;;;4992625;28;20053;-76
2022/08/08 10:23:35;;;;;;;7.38;2.40;;;;;;;;;;5010779;28;20065;-78
2022/08/08 10:26:02;;;;;;;7.32;2.40;;;;;;;;;;5009871;28;20092;-81
2022/08/08 10:28:30;;;;;;;6.70;2.28;;;;;;;;;;4992550;28;20050;-80
2022/08/08 10:33:46;;;;;;;6.10;2.20;;;;;;;;;;5009848;28;20149;-78
2022/08/08 10:36:14;;;;;;;8.70;2.47;;;;;;;;;;5010908;28;20050;-82
2022/08/08 10:38:41;;;;;;;7.68;2.33;;;;;;;;;;5013858;28;20049;-79
2022/08/08 10:41:15;;;;;;;8.73;2.38;;;;;;;;;;4994858;28;20050;-78
2022/08/08 10:43:41;;;;;;;8.50;2.47;;;;;;;;;;5013847;28;20132;-75
2022/08/08 10:46:24;;;;;;;;;;;;;;;;;;5014301;28;20054;-84
2022/08/08 10:48:52;;;;;;;7.50;2.35;;;;;;;;;;5015516;28;20048;-79
2022/08/08 10:51:18;;;;;;;6.93;2.30;;;;;;;;;;5014825;28;20066;-81
2022/08/08 10:53:48;;;;;;;7.75;2.35;;;;;;;;;;5013301;28;20058;-79
2022/08/08 10:56:15;;;;;;;9.85;2.38;;;;;;;;;;4995546;28;20042;-78
2022/08/08 10:58:41;;;;;;;8.98;2.50;;;;;;;;;;5013587;28;20045;-80
2022/08/08 11:01:10;;;;;;;8.40;2.33;;;;;;;;;;5013393;28;20143;-80
2022/08/08 11:03:40;;;;;;;10.93;2.33;;;;;;;;;;5013365;28;20076;-79
2022/08/08 11:06:07;;;;;;;6.93;2.30;;;;;;;;;;5013347;28;20061;-81
2022/08/08 11:08:35;;;;;;;8.13;2.33;;;;;;;;;;5013505;28;20076;-80
2022/08/08 11:11:02;;;;;;;8.52;2.40;;;;;;;;;;5013149;28;20125;-80
2022/08/08 11:13:28;;;;;;;5.40;2.15;;;;;;;;;;4995398;28;20492;-80
2022/08/08 11:15:54;;;;;;;;;;;;;;;;;;5013789;28;20137;-82
2022/08/08 11:18:21;;;;;;;7.03;2.20;;;;;;;;;;5013115;28;20273;-81
2022/08/08 11:20:49;;;;;;;8.93;2.60;;;;;;;;;;5013250;28;20050;-79
2022/08/08 11:23:16;;;;;;;7.95;2.40;;;;;;;;;;5012887;28;20054;-81
2022/08/08 11:25:43;;;;;;;10.10;2.40;;;;;;;;;;5012956;28;20096;-79
2022/08/08 11:28:11;;;;;;;8.18;2.42;;;;;;;;;;4995018;28;20138;-81
2022/08/08 11:30:37;;;;;;;7.60;2.30;;;;;;;;;;5012842;28;20082;-78
2022/08/08 11:33:04;;;;;;;8.85;2.38;;;;;;;;;;4995273;28;20172;-76
2022/08/08 11:35:30;;;;;;;7.63;2.60;;;;;;;;;;5012896;28;20057;-79
2022/08/08 11:37:56;;;;;;;8.18;2.13;;;;;;;;;;5012794;28;20050;-83
2022/08/08 11:40:22;;;;;;;8.18;2.28;;;;;;;;;;5012551;28;20062;-74
2022/08/08 11:42:48;;;;;;;;;;;;;;;;;;4995263;28;20124;-81
2022/08/08 11:45:15;;;;;;;7.15;2.13;;;;;;;;;;4994891;28;20018;-78
2022/08/08 11:47:41;;;;;;;6.45;2.03;;;;;;;;;;5011913;28;20054;-82
2022/08/08 11:50:09;;;;;;;6.22;2.08;;;;;;;;;;5012423;28;20053;-85
2022/08/08 11:52:35;;;;;;;6.88;2.33;;;;;;;;;;5012594;28;20061;-79
2022/08/08 11:55:02;;;;;;;6.78;2.28;;;;;;;;;;5011798;28;20195;-78
2022/08/08 11:57:29;;;;;;;10.77;3.28;;;;;;;;;;5012219;28;20096;-77
2022/08/08 11:59:59;;;;;;;8.02;2.28;;;;;;;;;;5012142;28;20142;-80
2022/08/08 12:02:26;;;;;;;8.15;2.20;;;;;;;;;;5012220;28;20053;-78
2022/08/08 12:05:09;;;;;;;7.80;2.22;;;;;;;;;;5012414;28;20061;-76
2022/08/08 12:07:45;;;;;;;7.07;2.38;;;;;;;;;;5012399;28;20046;-75
2022/08/08 12:10:12;;;;;;;7.80;2.50;;;;;;;;;;5012346;28;20089;-79
2022/08/08 12:12:42;;;;;;;8.70;2.70;;;;;;;;;;5012018;28;20053;-79
2022/08/08 12:15:08;;;;;;;7.68;2.17;;;;;;;;;;5012272;28;20046;-81
2022/08/08 12:17:35;;;;;;;8.98;2.35;;;;;;;;;;5012180;28;20096;-74
2022/08/08 12:20:03;;;;;;;8.68;2.20;;;;;;;;;;5012430;28;20052;-77
2022/08/08 12:22:31;;;;;;;8.38;2.38;;;;;;;;;;5012048;28;20057;-75
2022/08/08 12:24:57;;;;;;;5.68;1.90;;;;;;;;;;5011927;28;20137;-80
2022/08/08 12:27:23;;;;;;;7.50;2.13;;;;;;;;;;5011880;28;20144;-78
2022/08/08 12:29:49;;;;;;;;;;;;;;;;;;5012403;28;20119;-81
2022/08/08 12:32:16;;;;;;;6.97;1.92;;;;;;;;;;4994061;28;19933;-78
2022/08/08 12:34:43;;;;;;;6.28;2.42;;;;;;;;;;4993735;28;20046;-79
2022/08/08 12:37:11;;;;;;;8.30;2.50;;;;;;;;;;5011389;28;20049;-78
2022/08/08 12:39:38;;;;;;;9.70;2.40;;;;;;;;;;5011600;28;20418;-75
2022/08/08 12:42:04;;;;;;;6.35;2.22;;;;;;;;;;5011603;28;20049;-77
2022/08/08 12:44:31;;;;;;;9.68;2.20;;;;;;;;;;5011259;28;20046;-76
2022/08/08 12:46:58;;;;;;;5.75;1.90;;;;;;;;;;5010858;28;20050;-79
2022/08/08 12:49:31;;;;;;;6.35;1.98;;;;;;;;;;5011435;28;20065;-76
2022/08/08 12:51:58;;;;;;;6.75;2.10;;;;;;;;;;5011873;28;20061;-76
2022/08/08 12:54:31;;;;;;;7.93;2.17;;;;;;;;;;5011360;28;20159;-76
2022/08/08 12:56:58;;;;;;;6.75;2.10;;;;;;;;;;4994762;28;20050;-77
2022/08/08 12:59:26;;;;;;;7.82;2.20;;;;;;;;;;5010056;28;20120;-76
2022/08/08 13:01:59;;;;;;;8.77;2.30;;;;;;;;;;5010760;28;20351;-82
2022/08/08 13:04:27;;;;;;;8.52;2.60;;;;;;;;;;5011156;28;20049;-71
2022/08/08 13:06:53;;;;;;;7.75;2.50;;;;;;;;;;5011503;28;20108;-78
2022/08/08 13:09:19;;;;;;;;;;;;;;;;;;5012091;28;20117;-73
2022/08/08 13:11:52;;;;;;;8.05;2.35;;;;;;;;;;5012370;28;19925;-78
2022/08/08 13:14:19;;;;;;;9.30;2.50;;;;;;;;;;4994956;28;20100;-78
2022/08/08 13:16:45;;;;;;;8.35;2.20;;;;;;;;;;5012168;28;20053;-81
2022/08/08 13:19:11;;;;;;;8.13;2.10;;;;;;;;;;4993363;28;20045;-79
2022/08/08 13:21:44;;;;;;;7.38;2.22;;;;;;;;;;5011183;28;20045;-72
2022/08/08 13:24:10;;;;;;;6.15;2.17;;;;;;;;;;5010761;28;20343;-80
2022/08/08 13:26:36;;;;;;;;;;;;;;;;;;5010959;28;20061;-75
2022/08/08 13:29:09;;;;;;;7.30;2.30;;;;;;;;;;5010294;28;19921;-77
2022/08/08 13:31:35;;;;;;;7.40;2.30;;;;;;;;;;4992416;28;20204;-76
2022/08/08 13:34:01;;;;;;;;;;;;;;;;;;5010439;28;20046;-78
2022/08/08 13:36:28;;;;;;;11.38;3.13;;;;;;;;;;5025506;28;19928;-76
2022/08/08 13:38:54;;;;;;;5.57;1.98;;;;;;;;;;5010425;28;20124;-80
2022/08/08 13:41:21;;;;;;;6.72;2.20;;;;;;;;;;5010626;28;20052;-71
2022/08/08 13:43:47;;;;;;;4.88;2.00;;;;;;;;;;4992663;28;20135;-79
2022/08/08 13:46:14;;;;;;;8.38;2.45;;;;;;;;;;4992939;28;20053;-80
2022/08/08 13:48:44;;;;;;;7.05;2.30;;;;;;;;;;5010435;28;20100;-71
2022/08/08 13:51:11;;;;;;;12.00;2.80;;;;;;;;;;4992060;28;20430;-79
2022/08/08 13:53:39;;;;;;;11.30;2.53;;;;;;;;;;5010420;28;20405;-72
2022/08/08 13:56:07;;;;;;;9.18;2.50;;;;;;;;;;5010140;28;20529;-79
2022/08/08 13:58:34;;;;;;;7.57;2.25;;;;;;;;;;5010306;28;20115;-75
2022/08/08 14:01:17;;;;;;;6.78;2.30;;;;;;;;;;4992715;28;20041;-71
2022/08/08 14:03:53;;;;;;;9.68;1.92;;;;;;;;;;5010290;28;20096;-73
2022/08/08 14:06:22;;;;;;;8.07;2.47;;;;;;;;;;5010401;28;20148;-74
2022/08/08 14:08:49;;;;;;;7.60;2.17;;;;;;;;;;5010043;28;20046;-78
2022/08/08 14:11:18;;;;;;;7.82;2.10;;;;;;;;;;5009980;28;20162;-76
2022/08/08 14:13:46;;;;;;;8.70;2.10;;;;;;;;;;5009866;28;20045;-76
2022/08/08 14:16:12;;;;;;;7.15;2.13;;;;;;;;;;5010180;28;20201;-80
2022/08/08 14:18:49;;;;;;;7.47;2.42;;;;;;;;;;5010075;28;20136;-68
2022/08/08 14:21:15;;;;;;;8.45;2.38;;;;;;;;;;4992845;28;20057;-70
2022/08/08 14:23:41;;;;;;;;;;;;;;;;;;5010521;28;20057;-75
2022/08/08 14:26:07;;;;;;;7.20;1.83;;;;;;;;;;4992279;28;20330;-66
2022/08/08 14:28:33;;;;;;;8.00;2.10;;;;;;;;;;5010065;28;20148;-84
2022/08/08 14:30:59;;;;;;;;;;;;;;;;;;5010444;28;20042;-71
2022/08/08 14:33:29;;;;;;;8.35;2.50;;;;;;;;;;5009894;28;19932;-71
2022/08/08 14:36:03;;;;;;;9.57;2.13;;;;;;;;;;5009932;28;20132;-72
2022/08/08 14:38:33;;;;;;;6.95;2.10;;;;;;;;;;5009697;28;20109;-78
2022/08/08 14:41:12;;;;;;;7.50;2.25;;;;;;;;;;5009786;28;20042;-71
2022/08/08 14:43:48;;;;;;;5.15;2.00;;;;;;;;;;5009576;28;20088;-73
2022/08/08 14:46:16;;;;;;;9.23;2.30;;;;;;;;;;5009480;28;20054;-71
2022/08/08 14:48:43;;;;;;;7.75;2.10;;;;;;;;;;5009412;28;20049;-74
2022/08/08 14:51:11;;;;;;;10.00;2.47;;;;;;;;;;5009546;28;20494;-72
2022/08/08 14:53:38;;;;;;;8.05;2.40;;;;;;;;;;5009426;28;20097;-71
2022/08/08 14:56:04;;;;;;;7.97;2.28;;;;;;;;;;5009682;28;20104;-71
2022/08/08 14:58:30;;;;;;;6.65;2.10;;;;;;;;;;5009736;28;20147;-72
2022/08/08 15:00:56;;;;;;;;;;;;;;;;;;4992025;28;20054;-79
2022/08/08 15:03:22;;;;;;;8.40;2.40;;;;;;;;;;4992129;28;19979;-75
2022/08/08 15:05:48;;;;;;;;;;;;;;;;;;5009842;28;20087;-76